Carter, Oklahoma
Current Conditions -  °F | °C
As of 1:55 AM on Saturday 01 Nov 2014 (Local Time) from KELK Reporting Station
Clear Clear  
Wind Chill: 34°   Ceiling: Unl
Heat Index: 37°   Visibility: 10mi
Dew Point: 30°   Wind: 5mph
Humidity: 75%   Direction: 100°E
Pressure: 30.41"   Gusts: NA
Location:  35.22°N, 99.51°W
Report Text: KELK 010655Z AUTO 10004KT 10SM CLR 03/M01 A3041 RMK AO2 LTG DSNT W
Loading
Personal Weather Stations






























Interactive Weather Map
Tropical Storm Tracking
New forecast layout! Learn more

10-Day Weather Forecast

Advertisements
Track Severe Weather on mobile